KGFL/GFL METAR and TAF weather

Enter ICAO airport designator
Station Type Date Time Source
KGFL METAR 2019/04/26 03:53 UTC NOAA

KGFL 260353Z AUTO 36003KT 10SM SCT120 11/06 A2986 RMK AO2 SLP114 T01110056


Station Type Date Time Source
KGFL Decoded METAR 2019/04/26 03:53 UTC NOAA

FLOYD BENNETT MEMORIAL AIRPORT , NY, United States (KGFL) 43-20N 073-37W 103M
Apr 25, 2019 - 11:53 PM EDT / 2019.04.26 0353 UTC
Wind: from the N (360 degrees) at 3 MPH (3 KT):0
Visibility: 10 mile(s):0
Sky conditions: partly cloudy
Temperature: 52.0 F (11.1 C)
Dew Point: 42.1 F (5.6 C)
Relative Humidity: 68%
Pressure (altimeter): 29.86 in. Hg (1011 hPa)
ob: KGFL 260353Z AUTO 36003KT 10SM SCT120 11/06 A2986 RMK AO2 SLP114 T01110056
cycle: 4

Station Type Date Time Source
KGFL TAF 2019/04/25 18:48 UTC NOAA

TAF KGFL 251745Z 2518/2618 16005KT P6SM SCT250
FM260000 VRB03KT P6SM SCT120 BKN250
FM260500 00000KT P6SM VCSH SCT060 OVC100
FM260900 VRB03KT 5SM -RA BR BKN025 OVC060
FM261300 04007KT 3SM -RA BR SCT008 OVC015

Example: see airport list